sensor_id;sensor_type;location;lat;lon;timestamp;P1;durP1;ratioP1;P2;durP2;ratioP2
18711;SDS011;9485;49.386;8.674;2022-10-16T00:01:17;1.13;;;1.02;;
18711;SDS011;9485;49.386;8.674;2022-10-16T00:06:40;1.73;;;1.00;;
18711;SDS011;9485;49.386;8.674;2022-10-16T00:12:00;1.20;;;0.93;;
18711;SDS011;9485;49.386;8.674;2022-10-16T00:17:23;4.37;;;1.70;;
18711;SDS011;9485;49.386;8.674;2022-10-16T00:22:44;1.10;;;1.03;;
18711;SDS011;9485;49.386;8.674;2022-10-16T00:28:05;0.93;;;0.85;;
18711;SDS011;9485;49.386;8.674;2022-10-16T00:33:27;1.50;;;0.80;;
18711;SDS011;9485;49.386;8.674;2022-10-16T00:38:49;0.80;;;0.80;;
18711;SDS011;9485;49.386;8.674;2022-10-16T00:50:06;1.60;;;0.83;;
18711;SDS011;9485;49.386;8.674;2022-10-16T00:55:31;0.80;;;0.80;;
18711;SDS011;9485;49.386;8.674;2022-10-16T01:00:51;2.20;;;0.90;;
18711;SDS011;9485;49.386;8.674;2022-10-16T01:06:18;1.83;;;1.07;;
18711;SDS011;9485;49.386;8.674;2022-10-16T01:11:47;1.23;;;1.07;;
18711;SDS011;9485;49.386;8.674;2022-10-16T01:17:23;2.43;;;1.30;;
18711;SDS011;9485;49.386;8.674;2022-10-16T01:28:51;2.27;;;1.07;;
18711;SDS011;9485;49.386;8.674;2022-10-16T01:34:16;0.90;;;0.90;;
18711;SDS011;9485;49.386;8.674;2022-10-16T01:39:44;1.33;;;0.93;;
18711;SDS011;9485;49.386;8.674;2022-10-16T01:45:10;1.88;;;0.90;;
18711;SDS011;9485;49.386;8.674;2022-10-16T01:50:37;0.80;;;0.80;;
18711;SDS011;9485;49.386;8.674;2022-10-16T01:56:03;2.30;;;1.03;;
18711;SDS011;9485;49.386;8.674;2022-10-16T02:01:31;1.87;;;1.20;;
18711;SDS011;9485;49.386;8.674;2022-10-16T02:06:55;1.37;;;0.93;;
18711;SDS011;9485;49.386;8.674;2022-10-16T02:12:19;1.10;;;1.00;;
18711;SDS011;9485;49.386;8.674;2022-10-16T02:17:48;1.53;;;1.10;;
18711;SDS011;9485;49.386;8.674;2022-10-16T02:23:10;1.02;;;0.98;;
18711;SDS011;9485;49.386;8.674;2022-10-16T02:28:40;1.73;;;1.10;;
18711;SDS011;9485;49.386;8.674;2022-10-16T02:34:07;1.17;;;1.08;;
18711;SDS011;9485;49.386;8.674;2022-10-16T02:39:31;1.03;;;1.00;;
18711;SDS011;9485;49.386;8.674;2022-10-16T02:45:18;1.37;;;1.23;;
18711;SDS011;9485;49.386;8.674;2022-10-16T02:50:41;2.28;;;1.10;;
18711;SDS011;9485;49.386;8.674;2022-10-16T02:56:01;1.23;;;1.13;;
18711;SDS011;9485;49.386;8.674;2022-10-16T03:01:22;2.20;;;1.20;;
18711;SDS011;9485;49.386;8.674;2022-10-16T03:06:45;12.75;;;1.98;;
18711;SDS011;9485;49.386;8.674;2022-10-16T03:12:05;1.17;;;1.07;;
18711;SDS011;9485;49.386;8.674;2022-10-16T03:17:26;1.20;;;1.10;;
18711;SDS011;9485;49.386;8.674;2022-10-16T03:22:48;1.60;;;1.23;;
18711;SDS011;9485;49.386;8.674;2022-10-16T03:28:09;1.37;;;0.90;;
18711;SDS011;9485;49.386;8.674;2022-10-16T03:33:30;1.33;;;1.00;;
18711;SDS011;9485;49.386;8.674;2022-10-16T03:38:52;1.17;;;1.07;;
18711;SDS011;9485;49.386;8.674;2022-10-16T03:44:13;0.97;;;0.90;;
18711;SDS011;9485;49.386;8.674;2022-10-16T03:49:33;2.00;;;1.20;;
18711;SDS011;9485;49.386;8.674;2022-10-16T03:54:55;2.20;;;1.23;;
18711;SDS011;9485;49.386;8.674;2022-10-16T04:00:16;2.65;;;0.90;;
18711;SDS011;9485;49.386;8.674;2022-10-16T04:05:37;1.27;;;1.10;;
18711;SDS011;9485;49.386;8.674;2022-10-16T04:10:59;2.67;;;1.08;;
18711;SDS011;9485;49.386;8.674;2022-10-16T04:16:20;1.08;;;0.90;;
18711;SDS011;9485;49.386;8.674;2022-10-16T04:21:40;1.90;;;1.00;;
18711;SDS011;9485;49.386;8.674;2022-10-16T04:27:03;1.98;;;0.90;;
18711;SDS011;9485;49.386;8.674;2022-10-16T04:32:24;1.60;;;1.23;;
18711;SDS011;9485;49.386;8.674;2022-10-16T04:37:44;2.03;;;1.23;;
18711;SDS011;9485;49.386;8.674;2022-10-16T04:43:07;3.03;;;1.00;;
18711;SDS011;9485;49.386;8.674;2022-10-16T04:48:28;1.30;;;1.00;;
18711;SDS011;9485;49.386;8.674;2022-10-16T04:53:48;1.47;;;1.23;;
18711;SDS011;9485;49.386;8.674;2022-10-16T04:59:10;1.20;;;1.10;;
18711;SDS011;9485;49.386;8.674;2022-10-16T05:04:31;2.30;;;1.40;;
18711;SDS011;9485;49.386;8.674;2022-10-16T05:09:52;1.37;;;1.10;;
18711;SDS011;9485;49.386;8.674;2022-10-16T05:15:15;2.40;;;0.85;;
18711;SDS011;9485;49.386;8.674;2022-10-16T05:20:35;2.40;;;0.97;;
18711;SDS011;9485;49.386;8.674;2022-10-16T05:25:56;0.80;;;0.80;;
18711;SDS011;9485;49.386;8.674;2022-10-16T05:31:19;1.63;;;0.80;;
18711;SDS011;9485;49.386;8.674;2022-10-16T05:36:40;2.15;;;1.10;;
18711;SDS011;9485;49.386;8.674;2022-10-16T05:42:01;1.30;;;1.00;;
18711;SDS011;9485;49.386;8.674;2022-10-16T05:47:23;2.47;;;1.10;;
18711;SDS011;9485;49.386;8.674;2022-10-16T05:52:44;1.57;;;1.00;;
18711;SDS011;9485;49.386;8.674;2022-10-16T05:58:04;1.63;;;1.20;;
18711;SDS011;9485;49.386;8.674;2022-10-16T06:03:27;1.13;;;1.03;;
18711;SDS011;9485;49.386;8.674;2022-10-16T06:08:48;1.42;;;1.00;;
18711;SDS011;9485;49.386;8.674;2022-10-16T06:14:09;1.07;;;0.90;;
18711;SDS011;9485;49.386;8.674;2022-10-16T06:19:31;1.20;;;1.05;;
18711;SDS011;9485;49.386;8.674;2022-10-16T06:24:53;1.10;;;1.00;;
18711;SDS011;9485;49.386;8.674;2022-10-16T06:30:13;1.00;;;1.00;;
18711;SDS011;9485;49.386;8.674;2022-10-16T06:35:35;2.38;;;1.15;;
18711;SDS011;9485;49.386;8.674;2022-10-16T06:40:56;2.77;;;0.77;;
18711;SDS011;9485;49.386;8.674;2022-10-16T06:46:23;0.93;;;0.83;;
18711;SDS011;9485;49.386;8.674;2022-10-16T06:51:46;1.00;;;0.90;;
18711;SDS011;9485;49.386;8.674;2022-10-16T06:57:07;1.85;;;1.10;;
18711;SDS011;9485;49.386;8.674;2022-10-16T07:02:28;1.13;;;1.03;;
18711;SDS011;9485;49.386;8.674;2022-10-16T07:07:50;0.90;;;0.88;;
18711;SDS011;9485;49.386;8.674;2022-10-16T07:13:11;1.93;;;1.10;;
18711;SDS011;9485;49.386;8.674;2022-10-16T07:18:33;1.13;;;1.00;;
18711;SDS011;9485;49.386;8.674;2022-10-16T07:23:57;1.35;;;1.02;;
18711;SDS011;9485;49.386;8.674;2022-10-16T07:29:20;1.20;;;0.93;;
18711;SDS011;9485;49.386;8.674;2022-10-16T07:34:41;1.25;;;0.90;;
18711;SDS011;9485;49.386;8.674;2022-10-16T07:40:05;1.05;;;1.05;;
18711;SDS011;9485;49.386;8.674;2022-10-16T07:45:27;5.47;;;1.17;;
18711;SDS011;9485;49.386;8.674;2022-10-16T07:50:48;3.35;;;1.40;;
18711;SDS011;9485;49.386;8.674;2022-10-16T07:56:10;1.10;;;1.00;;
18711;SDS011;9485;49.386;8.674;2022-10-16T08:01:32;1.58;;;1.13;;
18711;SDS011;9485;49.386;8.674;2022-10-16T08:06:53;1.23;;;1.13;;
18711;SDS011;9485;49.386;8.674;2022-10-16T08:12:15;2.28;;;1.10;;
18711;SDS011;9485;49.386;8.674;2022-10-16T08:17:36;1.33;;;0.90;;
18711;SDS011;9485;49.386;8.674;2022-10-16T08:22:57;0.73;;;0.73;;
18711;SDS011;9485;49.386;8.674;2022-10-16T08:28:20;1.70;;;0.98;;
18711;SDS011;9485;49.386;8.674;2022-10-16T08:33:43;1.02;;;0.93;;
18711;SDS011;9485;49.386;8.674;2022-10-16T08:39:05;0.90;;;0.90;;
18711;SDS011;9485;49.386;8.674;2022-10-16T08:44:41;1.90;;;0.88;;
18711;SDS011;9485;49.386;8.674;2022-10-16T08:50:29;0.80;;;0.80;;
18711;SDS011;9485;49.386;8.674;2022-10-16T08:55:53;1.38;;;1.15;;
18711;SDS011;9485;49.386;8.674;2022-10-16T09:01:16;0.88;;;0.82;;
18711;SDS011;9485;49.386;8.674;2022-10-16T09:06:43;1.13;;;1.00;;
18711;SDS011;9485;49.386;8.674;2022-10-16T09:12:15;0.90;;;0.90;;
18711;SDS011;9485;49.386;8.674;2022-10-16T09:17:50;1.40;;;0.95;;
18711;SDS011;9485;49.386;8.674;2022-10-16T09:23:23;0.73;;;0.73;;
18711;SDS011;9485;49.386;8.674;2022-10-16T09:28:47;0.98;;;0.98;;
18711;SDS011;9485;49.386;8.674;2022-10-16T09:34:11;1.42;;;1.08;;
18711;SDS011;9485;49.386;8.674;2022-10-16T09:39:44;0.95;;;0.95;;
18711;SDS011;9485;49.386;8.674;2022-10-16T09:45:19;1.05;;;1.00;;
18711;SDS011;9485;49.386;8.674;2022-10-16T09:50:44;2.35;;;1.00;;
18711;SDS011;9485;49.386;8.674;2022-10-16T09:56:21;1.13;;;0.90;;
18711;SDS011;9485;49.386;8.674;2022-10-16T10:01:44;1.30;;;1.10;;
18711;SDS011;9485;49.386;8.674;2022-10-16T10:07:17;1.27;;;1.10;;
18711;SDS011;9485;49.386;8.674;2022-10-16T10:12:44;1.27;;;0.82;;
18711;SDS011;9485;49.386;8.674;2022-10-16T10:18:15;1.08;;;0.93;;
18711;SDS011;9485;49.386;8.674;2022-10-16T10:23:42;2.63;;;1.30;;
18711;SDS011;9485;49.386;8.674;2022-10-16T10:29:03;1.55;;;0.98;;
18711;SDS011;9485;49.386;8.674;2022-10-16T10:34:42;0.95;;;0.90;;
18711;SDS011;9485;49.386;8.674;2022-10-16T10:40:28;1.35;;;1.23;;
18711;SDS011;9485;49.386;8.674;2022-10-16T10:46:03;1.70;;;1.00;;
18711;SDS011;9485;49.386;8.674;2022-10-16T10:51:28;1.10;;;1.00;;
18711;SDS011;9485;49.386;8.674;2022-10-16T10:57:06;1.88;;;1.30;;
18711;SDS011;9485;49.386;8.674;2022-10-16T11:02:36;1.40;;;1.10;;
18711;SDS011;9485;49.386;8.674;2022-10-16T11:08:02;1.35;;;1.25;;
18711;SDS011;9485;49.386;8.674;2022-10-16T11:13:35;1.35;;;1.20;;
18711;SDS011;9485;49.386;8.674;2022-10-16T11:19:10;1.58;;;1.17;;
18711;SDS011;9485;49.386;8.674;2022-10-16T11:24:49;2.65;;;1.30;;
18711;SDS011;9485;49.386;8.674;2022-10-16T11:30:20;1.15;;;1.02;;
18711;SDS011;9485;49.386;8.674;2022-10-16T11:35:46;1.30;;;1.20;;
18711;SDS011;9485;49.386;8.674;2022-10-16T11:41:15;4.93;;;3.05;;
18711;SDS011;9485;49.386;8.674;2022-10-16T11:46:50;2.35;;;1.60;;
18711;SDS011;9485;49.386;8.674;2022-10-16T11:52:23;1.45;;;1.35;;
18711;SDS011;9485;49.386;8.674;2022-10-16T11:57:51;3.83;;;1.55;;
18711;SDS011;9485;49.386;8.674;2022-10-16T12:03:20;2.35;;;1.23;;
18711;SDS011;9485;49.386;8.674;2022-10-16T12:08:48;1.77;;;1.02;;
18711;SDS011;9485;49.386;8.674;2022-10-16T12:14:18;1.35;;;1.00;;
18711;SDS011;9485;49.386;8.674;2022-10-16T12:19:58;1.15;;;1.05;;
18711;SDS011;9485;49.386;8.674;2022-10-16T12:25:33;2.97;;;1.15;;
18711;SDS011;9485;49.386;8.674;2022-10-16T12:30:58;2.03;;;1.40;;
18711;SDS011;9485;49.386;8.674;2022-10-16T12:36:28;1.52;;;1.42;;
18711;SDS011;9485;49.386;8.674;2022-10-16T12:42:01;1.90;;;1.40;;
18711;SDS011;9485;49.386;8.674;2022-10-16T12:47:35;4.28;;;1.30;;
18711;SDS011;9485;49.386;8.674;2022-10-16T12:53:18;1.40;;;1.30;;
18711;SDS011;9485;49.386;8.674;2022-10-16T12:58:51;1.33;;;1.23;;
18711;SDS011;9485;49.386;8.674;2022-10-16T13:10:33;1.38;;;1.08;;
18711;SDS011;9485;49.386;8.674;2022-10-16T13:16:06;1.10;;;1.00;;
18711;SDS011;9485;49.386;8.674;2022-10-16T13:21:39;1.63;;;1.27;;
18711;SDS011;9485;49.386;8.674;2022-10-16T13:27:11;1.20;;;1.10;;
18711;SDS011;9485;49.386;8.674;2022-10-16T13:32:44;1.98;;;1.52;;
18711;SDS011;9485;49.386;8.674;2022-10-16T13:38:12;3.17;;;1.60;;
18711;SDS011;9485;49.386;8.674;2022-10-16T13:43:37;4.68;;;1.38;;
18711;SDS011;9485;49.386;8.674;2022-10-16T13:49:03;1.75;;;1.05;;
18711;SDS011;9485;49.386;8.674;2022-10-16T13:54:31;1.42;;;1.20;;
18711;SDS011;9485;49.386;8.674;2022-10-16T13:59:53;2.55;;;1.35;;
18711;SDS011;9485;49.386;8.674;2022-10-16T14:05:14;1.98;;;1.65;;
18711;SDS011;9485;49.386;8.674;2022-10-16T14:10:35;2.17;;;1.42;;
18711;SDS011;9485;49.386;8.674;2022-10-16T14:16:00;2.88;;;1.30;;
18711;SDS011;9485;49.386;8.674;2022-10-16T14:21:27;4.63;;;1.90;;
18711;SDS011;9485;49.386;8.674;2022-10-16T14:26:48;1.85;;;1.08;;
18711;SDS011;9485;49.386;8.674;2022-10-16T14:32:22;4.10;;;1.50;;
18711;SDS011;9485;49.386;8.674;2022-10-16T14:37:51;1.58;;;1.48;;
18711;SDS011;9485;49.386;8.674;2022-10-16T14:43:14;1.63;;;1.50;;
18711;SDS011;9485;49.386;8.674;2022-10-16T14:48:43;4.53;;;1.60;;
18711;SDS011;9485;49.386;8.674;2022-10-16T14:54:07;3.08;;;1.58;;
18711;SDS011;9485;49.386;8.674;2022-10-16T14:59:30;3.70;;;1.40;;
18711;SDS011;9485;49.386;8.674;2022-10-16T15:04:57;2.28;;;1.20;;
18711;SDS011;9485;49.386;8.674;2022-10-16T15:10:22;3.78;;;1.98;;
18711;SDS011;9485;49.386;8.674;2022-10-16T15:15:45;1.92;;;1.60;;
18711;SDS011;9485;49.386;8.674;2022-10-16T15:21:09;1.42;;;1.33;;
18711;SDS011;9485;49.386;8.674;2022-10-16T15:26:45;1.40;;;1.30;;
18711;SDS011;9485;49.386;8.674;2022-10-16T15:32:05;1.83;;;1.55;;
18711;SDS011;9485;49.386;8.674;2022-10-16T15:37:29;1.58;;;1.33;;
18711;SDS011;9485;49.386;8.674;2022-10-16T15:42:50;1.67;;;1.58;;
18711;SDS011;9485;49.386;8.674;2022-10-16T15:48:11;2.10;;;1.50;;
18711;SDS011;9485;49.386;8.674;2022-10-16T15:53:34;1.75;;;1.65;;
18711;SDS011;9485;49.386;8.674;2022-10-16T15:58:55;1.65;;;1.42;;
18711;SDS011;9485;49.386;8.674;2022-10-16T16:04:17;3.50;;;1.50;;
18711;SDS011;9485;49.386;8.674;2022-10-16T16:09:39;2.78;;;1.30;;
18711;SDS011;9485;49.386;8.674;2022-10-16T16:14:59;4.00;;;1.70;;
18711;SDS011;9485;49.386;8.674;2022-10-16T16:20:20;3.00;;;1.48;;
18711;SDS011;9485;49.386;8.674;2022-10-16T16:25:43;3.60;;;1.60;;
18711;SDS011;9485;49.386;8.674;2022-10-16T16:31:05;2.75;;;1.60;;
18711;SDS011;9485;49.386;8.674;2022-10-16T16:36:30;2.17;;;1.35;;
18711;SDS011;9485;49.386;8.674;2022-10-16T16:41:54;2.38;;;1.75;;
18711;SDS011;9485;49.386;8.674;2022-10-16T16:47:16;5.03;;;2.22;;
18711;SDS011;9485;49.386;8.674;2022-10-16T16:52:37;3.05;;;1.92;;
18711;SDS011;9485;49.386;8.674;2022-10-16T16:57:59;2.90;;;1.52;;
18711;SDS011;9485;49.386;8.674;2022-10-16T17:03:21;1.63;;;1.45;;
18711;SDS011;9485;49.386;8.674;2022-10-16T17:08:42;1.70;;;1.45;;
18711;SDS011;9485;49.386;8.674;2022-10-16T17:14:08;1.92;;;1.52;;
18711;SDS011;9485;49.386;8.674;2022-10-16T17:19:28;2.10;;;1.42;;
18711;SDS011;9485;49.386;8.674;2022-10-16T17:24:49;1.63;;;1.52;;
18711;SDS011;9485;49.386;8.674;2022-10-16T17:30:14;1.70;;;1.40;;
18711;SDS011;9485;49.386;8.674;2022-10-16T17:35:38;1.58;;;1.25;;
18711;SDS011;9485;49.386;8.674;2022-10-16T17:41:09;1.35;;;1.13;;
18711;SDS011;9485;49.386;8.674;2022-10-16T17:46:32;2.15;;;1.92;;
18711;SDS011;9485;49.386;8.674;2022-10-16T17:51:54;1.10;;;1.02;;
18711;SDS011;9485;49.386;8.674;2022-10-16T17:57:15;1.70;;;1.10;;
18711;SDS011;9485;49.386;8.674;2022-10-16T18:02:37;1.58;;;1.40;;
18711;SDS011;9485;49.386;8.674;2022-10-16T18:08:08;2.78;;;1.80;;
18711;SDS011;9485;49.386;8.674;2022-10-16T18:13:28;3.40;;;2.90;;
18711;SDS011;9485;49.386;8.674;2022-10-16T18:18:57;2.83;;;2.08;;
18711;SDS011;9485;49.386;8.674;2022-10-16T18:24:18;2.60;;;1.50;;
18711;SDS011;9485;49.386;8.674;2022-10-16T18:29:40;2.58;;;1.73;;
18711;SDS011;9485;49.386;8.674;2022-10-16T18:35:02;1.50;;;1.10;;
18711;SDS011;9485;49.386;8.674;2022-10-16T18:40:23;1.70;;;1.30;;
18711;SDS011;9485;49.386;8.674;2022-10-16T18:45:53;1.60;;;1.40;;
18711;SDS011;9485;49.386;8.674;2022-10-16T18:51:17;1.95;;;1.23;;
18711;SDS011;9485;49.386;8.674;2022-10-16T18:56:44;2.00;;;1.20;;
18711;SDS011;9485;49.386;8.674;2022-10-16T19:02:05;1.67;;;1.30;;
18711;SDS011;9485;49.386;8.674;2022-10-16T19:07:32;1.23;;;1.13;;
18711;SDS011;9485;49.386;8.674;2022-10-16T19:12:53;1.55;;;1.20;;
18711;SDS011;9485;49.386;8.674;2022-10-16T19:18:14;2.35;;;1.40;;
18711;SDS011;9485;49.386;8.674;2022-10-16T19:23:36;1.25;;;1.15;;
18711;SDS011;9485;49.386;8.674;2022-10-16T19:28:58;1.58;;;1.48;;
18711;SDS011;9485;49.386;8.674;2022-10-16T19:34:21;2.83;;;1.27;;
18711;SDS011;9485;49.386;8.674;2022-10-16T19:39:43;1.92;;;1.30;;
18711;SDS011;9485;49.386;8.674;2022-10-16T19:45:04;1.40;;;1.30;;
18711;SDS011;9485;49.386;8.674;2022-10-16T19:50:27;3.03;;;1.50;;
18711;SDS011;9485;49.386;8.674;2022-10-16T19:55:50;2.42;;;1.65;;
18711;SDS011;9485;49.386;8.674;2022-10-16T20:01:10;2.47;;;2.13;;
18711;SDS011;9485;49.386;8.674;2022-10-16T20:06:33;1.58;;;1.40;;
18711;SDS011;9485;49.386;8.674;2022-10-16T20:11:55;2.85;;;1.58;;
18711;SDS011;9485;49.386;8.674;2022-10-16T20:17:15;6.40;;;3.83;;
18711;SDS011;9485;49.386;8.674;2022-10-16T20:22:36;3.90;;;2.35;;
18711;SDS011;9485;49.386;8.674;2022-10-16T20:27:58;2.72;;;2.42;;
18711;SDS011;9485;49.386;8.674;2022-10-16T20:33:19;1.60;;;1.50;;
18711;SDS011;9485;49.386;8.674;2022-10-16T20:38:41;1.20;;;1.10;;
18711;SDS011;9485;49.386;8.674;2022-10-16T20:44:03;1.90;;;1.25;;
18711;SDS011;9485;49.386;8.674;2022-10-16T20:49:25;1.20;;;1.05;;
18711;SDS011;9485;49.386;8.674;2022-10-16T20:54:46;3.28;;;1.52;;
18711;SDS011;9485;49.386;8.674;2022-10-16T21:00:09;1.98;;;1.52;;
18711;SDS011;9485;49.386;8.674;2022-10-16T21:05:31;2.00;;;1.50;;
18711;SDS011;9485;49.386;8.674;2022-10-16T21:10:52;1.75;;;1.42;;
18711;SDS011;9485;49.386;8.674;2022-10-16T21:16:16;2.10;;;1.52;;
18711;SDS011;9485;49.386;8.674;2022-10-16T21:21:38;1.65;;;1.55;;
18711;SDS011;9485;49.386;8.674;2022-10-16T21:26:58;4.30;;;1.15;;
18711;SDS011;9485;49.386;8.674;2022-10-16T21:32:20;1.50;;;1.40;;
18711;SDS011;9485;49.386;8.674;2022-10-16T21:37:41;3.63;;;1.48;;
18711;SDS011;9485;49.386;8.674;2022-10-16T21:43:06;1.50;;;1.35;;
18711;SDS011;9485;49.386;8.674;2022-10-16T21:48:30;2.20;;;1.50;;
18711;SDS011;9485;49.386;8.674;2022-10-16T21:53:50;3.03;;;1.52;;
18711;SDS011;9485;49.386;8.674;2022-10-16T21:59:11;2.15;;;1.40;;
18711;SDS011;9485;49.386;8.674;2022-10-16T22:04:34;1.33;;;1.20;;
18711;SDS011;9485;49.386;8.674;2022-10-16T22:09:55;3.95;;;1.80;;
18711;SDS011;9485;49.386;8.674;2022-10-16T22:15:16;2.70;;;1.40;;
18711;SDS011;9485;49.386;8.674;2022-10-16T22:20:43;6.28;;;2.97;;
18711;SDS011;9485;49.386;8.674;2022-10-16T22:26:05;4.63;;;3.10;;
18711;SDS011;9485;49.386;8.674;2022-10-16T22:31:28;4.60;;;2.40;;
18711;SDS011;9485;49.386;8.674;2022-10-16T22:36:51;2.67;;;1.90;;
18711;SDS011;9485;49.386;8.674;2022-10-16T22:42:11;3.90;;;2.13;;
18711;SDS011;9485;49.386;8.674;2022-10-16T22:47:32;3.75;;;1.92;;
18711;SDS011;9485;49.386;8.674;2022-10-16T22:52:57;3.88;;;1.98;;
18711;SDS011;9485;49.386;8.674;2022-10-16T22:58:17;4.47;;;2.00;;
18711;SDS011;9485;49.386;8.674;2022-10-16T23:03:38;4.05;;;1.98;;
18711;SDS011;9485;49.386;8.674;2022-10-16T23:09:01;3.22;;;2.00;;
18711;SDS011;9485;49.386;8.674;2022-10-16T23:14:22;2.50;;;1.70;;
18711;SDS011;9485;49.386;8.674;2022-10-16T23:19:43;3.03;;;1.60;;
18711;SDS011;9485;49.386;8.674;2022-10-16T23:25:05;2.28;;;1.58;;
18711;SDS011;9485;49.386;8.674;2022-10-16T23:30:27;2.60;;;1.60;;
18711;SDS011;9485;49.386;8.674;2022-10-16T23:35:47;2.57;;;1.70;;
18711;SDS011;9485;49.386;8.674;2022-10-16T23:41:10;2.03;;;1.80;;
18711;SDS011;9485;49.386;8.674;2022-10-16T23:46:32;2.90;;;1.67;;
18711;SDS011;9485;49.386;8.674;2022-10-16T23:51:53;1.93;;;1.70;;
18711;SDS011;9485;49.386;8.674;2022-10-16T23:57:15;4.43;;;1.57;;
